sensor_id;sensor_type;location;lat;lon;timestamp;pressure;altitude;pressure_sealevel;temperature;humidity
12987;BME280;58897;51.960;5.582;2023-11-21T00:01:03;100829.38;;;8.42;100.00
12987;BME280;58897;51.960;5.582;2023-11-21T00:03:31;100833.56;;;8.54;100.00
12987;BME280;58897;51.960;5.582;2023-11-21T00:05:58;100835.47;;;8.44;100.00
12987;BME280;58897;51.960;5.582;2023-11-21T00:08:24;100833.75;;;8.43;100.00
12987;BME280;58897;51.960;5.582;2023-11-21T00:10:51;100834.78;;;8.42;100.00
12987;BME280;58897;51.960;5.582;2023-11-21T00:13:18;100835.19;;;8.37;100.00
12987;BME280;58897;51.960;5.582;2023-11-21T00:15:45;100845.44;;;8.34;100.00
12987;BME280;58897;51.960;5.582;2023-11-21T00:18:11;100839.31;;;8.32;100.00
12987;BME280;58897;51.960;5.582;2023-11-21T00:20:38;100836.97;;;8.29;100.00
12987;BME280;58897;51.960;5.582;2023-11-21T00:23:05;100843.19;;;8.20;100.00
12987;BME280;58897;51.960;5.582;2023-11-21T00:25:31;100844.34;;;8.17;100.00
12987;BME280;58897;51.960;5.582;2023-11-21T00:27:58;100840.50;;;8.20;100.00
12987;BME280;58897;51.960;5.582;2023-11-21T00:30:25;100846.72;;;8.20;100.00
12987;BME280;58897;51.960;5.582;2023-11-21T00:32:52;100839.81;;;8.18;100.00
12987;BME280;58897;51.960;5.582;2023-11-21T00:35:19;100849.75;;;8.07;100.00
12987;BME280;58897;51.960;5.582;2023-11-21T00:37:45;100850.63;;;8.08;100.00
12987;BME280;58897;51.960;5.582;2023-11-21T00:40:12;100846.03;;;8.18;100.00
12987;BME280;58897;51.960;5.582;2023-11-21T00:42:42;100857.63;;;8.19;100.00
12987;BME280;58897;51.960;5.582;2023-11-21T00:45:08;100862.03;;;8.20;100.00
12987;BME280;58897;51.960;5.582;2023-11-21T00:47:35;100856.94;;;8.17;100.00
12987;BME280;58897;51.960;5.582;2023-11-21T00:50:02;100863.56;;;8.22;100.00
12987;BME280;58897;51.960;5.582;2023-11-21T00:52:29;100868.09;;;8.22;100.00
12987;BME280;58897;51.960;5.582;2023-11-21T00:54:55;100865.69;;;8.19;100.00
12987;BME280;58897;51.960;5.582;2023-11-21T00:57:22;100864.59;;;8.12;100.00
12987;BME280;58897;51.960;5.582;2023-11-21T00:59:48;100874.91;;;8.16;100.00
12987;BME280;58897;51.960;5.582;2023-11-21T01:02:15;100877.88;;;8.23;100.00
12987;BME280;58897;51.960;5.582;2023-11-21T01:04:42;100877.34;;;8.29;100.00
12987;BME280;58897;51.960;5.582;2023-11-21T01:07:08;100884.25;;;8.22;100.00
12987;BME280;58897;51.960;5.582;2023-11-21T01:09:35;100885.25;;;8.21;100.00
12987;BME280;58897;51.960;5.582;2023-11-21T01:12:02;100892.94;;;8.16;100.00
12987;BME280;58897;51.960;5.582;2023-11-21T01:14:29;100894.47;;;8.18;100.00
12987;BME280;58897;51.960;5.582;2023-11-21T01:16:55;100891.66;;;8.10;100.00
12987;BME280;58897;51.960;5.582;2023-11-21T01:19:22;100908.50;;;8.12;100.00
12987;BME280;58897;51.960;5.582;2023-11-21T01:21:49;100910.06;;;8.15;100.00
12987;BME280;58897;51.960;5.582;2023-11-21T01:24:15;100907.94;;;8.18;100.00
12987;BME280;58897;51.960;5.582;2023-11-21T01:26:42;100904.94;;;8.21;100.00
12987;BME280;58897;51.960;5.582;2023-11-21T01:29:09;100911.59;;;8.17;100.00
12987;BME280;58897;51.960;5.582;2023-11-21T01:31:36;100910.75;;;8.17;100.00
12987;BME280;58897;51.960;5.582;2023-11-21T01:34:03;100906.25;;;8.07;100.00
12987;BME280;58897;51.960;5.582;2023-11-21T01:36:31;100900.72;;;8.09;100.00
12987;BME280;58897;51.960;5.582;2023-11-21T01:38:59;100903.41;;;8.09;100.00
12987;BME280;58897;51.960;5.582;2023-11-21T01:41:29;100907.25;;;8.06;100.00
12987;BME280;58897;51.960;5.582;2023-11-21T01:43:56;100901.81;;;8.16;100.00
12987;BME280;58897;51.960;5.582;2023-11-21T01:46:23;100904.59;;;7.97;100.00
12987;BME280;58897;51.960;5.582;2023-11-21T01:48:51;100906.41;;;7.96;100.00
12987;BME280;58897;51.960;5.582;2023-11-21T01:51:17;100916.47;;;7.94;100.00
12987;BME280;58897;51.960;5.582;2023-11-21T01:53:45;100919.19;;;7.94;100.00
12987;BME280;58897;51.960;5.582;2023-11-21T01:56:14;100923.00;;;7.82;100.00
12987;BME280;58897;51.960;5.582;2023-11-21T01:58:41;100928.53;;;7.81;100.00
12987;BME280;58897;51.960;5.582;2023-11-21T02:01:09;100929.38;;;7.81;100.00
12987;BME280;58897;51.960;5.582;2023-11-21T02:03:36;100929.25;;;7.73;100.00
12987;BME280;58897;51.960;5.582;2023-11-21T02:06:03;100928.25;;;7.65;100.00
12987;BME280;58897;51.960;5.582;2023-11-21T02:08:30;100925.69;;;7.82;100.00
12987;BME280;58897;51.960;5.582;2023-11-21T02:10:57;100936.47;;;7.73;100.00
12987;BME280;58897;51.960;5.582;2023-11-21T02:13:24;100934.75;;;7.72;100.00
12987;BME280;58897;51.960;5.582;2023-11-21T02:15:51;100936.19;;;7.47;100.00
12987;BME280;58897;51.960;5.582;2023-11-21T02:18:18;100934.19;;;7.59;100.00
12987;BME280;58897;51.960;5.582;2023-11-21T02:20:45;100942.13;;;7.60;100.00
12987;BME280;58897;51.960;5.582;2023-11-21T02:23:13;100946.94;;;7.47;100.00
12987;BME280;58897;51.960;5.582;2023-11-21T02:25:41;100950.91;;;7.62;100.00
12987;BME280;58897;51.960;5.582;2023-11-21T02:28:09;100956.00;;;7.65;100.00
12987;BME280;58897;51.960;5.582;2023-11-21T02:30:39;100957.84;;;7.74;100.00
12987;BME280;58897;51.960;5.582;2023-11-21T02:33:06;100955.69;;;7.78;100.00
12987;BME280;58897;51.960;5.582;2023-11-21T02:35:33;100954.56;;;7.80;100.00
12987;BME280;58897;51.960;5.582;2023-11-21T02:38:01;100956.41;;;7.80;100.00
12987;BME280;58897;51.960;5.582;2023-11-21T02:40:28;100950.19;;;7.70;100.00
12987;BME280;58897;51.960;5.582;2023-11-21T02:42:56;100962.94;;;7.68;100.00
12987;BME280;58897;51.960;5.582;2023-11-21T02:45:26;100962.91;;;7.77;100.00
12987;BME280;58897;51.960;5.582;2023-11-21T02:47:52;100959.81;;;7.72;100.00
12987;BME280;58897;51.960;5.582;2023-11-21T02:50:25;100960.09;;;7.79;100.00
12987;BME280;58897;51.960;5.582;2023-11-21T02:52:51;100964.63;;;7.78;100.00
12987;BME280;58897;51.960;5.582;2023-11-21T02:55:18;100965.47;;;7.79;100.00
12987;BME280;58897;51.960;5.582;2023-11-21T02:57:45;100958.94;;;7.91;100.00
12987;BME280;58897;51.960;5.582;2023-11-21T03:00:12;100951.44;;;7.85;100.00
12987;BME280;58897;51.960;5.582;2023-11-21T03:02:41;100957.25;;;7.80;100.00
12987;BME280;58897;51.960;5.582;2023-11-21T03:05:09;100962.94;;;7.87;100.00
12987;BME280;58897;51.960;5.582;2023-11-21T03:07:37;100955.69;;;7.87;100.00
12987;BME280;58897;51.960;5.582;2023-11-21T03:10:04;100963.91;;;7.86;100.00
12987;BME280;58897;51.960;5.582;2023-11-21T03:12:31;100962.22;;;7.94;100.00
12987;BME280;58897;51.960;5.582;2023-11-21T03:14:57;100962.50;;;7.82;100.00
12987;BME280;58897;51.960;5.582;2023-11-21T03:17:24;100958.81;;;7.92;100.00
12987;BME280;58897;51.960;5.582;2023-11-21T03:19:51;100962.50;;;7.91;100.00
12987;BME280;58897;51.960;5.582;2023-11-21T03:22:18;100958.28;;;7.79;100.00
12987;BME280;58897;51.960;5.582;2023-11-21T03:24:45;100963.22;;;7.84;100.00
12987;BME280;58897;51.960;5.582;2023-11-21T03:27:12;100960.81;;;7.81;100.00
12987;BME280;58897;51.960;5.582;2023-11-21T03:29:38;100966.59;;;7.95;100.00
12987;BME280;58897;51.960;5.582;2023-11-21T03:32:06;100963.19;;;7.93;100.00
12987;BME280;58897;51.960;5.582;2023-11-21T03:34:33;100966.91;;;7.92;100.00
12987;BME280;58897;51.960;5.582;2023-11-21T03:37:00;100972.69;;;7.97;100.00
12987;BME280;58897;51.960;5.582;2023-11-21T03:39:26;100977.34;;;8.05;100.00
12987;BME280;58897;51.960;5.582;2023-11-21T03:41:53;100977.47;;;8.03;100.00
12987;BME280;58897;51.960;5.582;2023-11-21T03:44:20;100976.22;;;8.07;100.00
12987;BME280;58897;51.960;5.582;2023-11-21T03:46:47;100980.03;;;8.05;100.00
12987;BME280;58897;51.960;5.582;2023-11-21T03:49:13;100977.88;;;8.08;100.00
12987;BME280;58897;51.960;5.582;2023-11-21T03:51:40;100975.50;;;8.05;100.00
12987;BME280;58897;51.960;5.582;2023-11-21T03:54:07;100980.75;;;8.07;100.00
12987;BME280;58897;51.960;5.582;2023-11-21T03:56:33;100989.94;;;8.04;100.00
12987;BME280;58897;51.960;5.582;2023-11-21T03:59:00;100988.66;;;8.08;100.00
12987;BME280;58897;51.960;5.582;2023-11-21T04:01:26;100995.31;;;8.14;100.00
12987;BME280;58897;51.960;5.582;2023-11-21T04:03:53;100989.66;;;8.07;100.00
12987;BME280;58897;51.960;5.582;2023-11-21T04:06:20;100992.91;;;8.11;100.00
12987;BME280;58897;51.960;5.582;2023-11-21T04:08:46;100994.03;;;8.08;100.00
12987;BME280;58897;51.960;5.582;2023-11-21T04:11:13;100998.16;;;8.03;100.00
12987;BME280;58897;51.960;5.582;2023-11-21T04:13:40;101007.06;;;8.03;100.00
12987;BME280;58897;51.960;5.582;2023-11-21T04:16:09;100999.28;;;8.10;100.00
12987;BME280;58897;51.960;5.582;2023-11-21T04:18:36;101006.06;;;8.14;100.00
12987;BME280;58897;51.960;5.582;2023-11-21T04:21:05;101013.16;;;8.15;100.00
12987;BME280;58897;51.960;5.582;2023-11-21T04:23:32;101012.88;;;8.08;100.00
12987;BME280;58897;51.960;5.582;2023-11-21T04:25:59;101013.16;;;8.15;100.00
12987;BME280;58897;51.960;5.582;2023-11-21T04:28:26;101020.13;;;8.08;100.00
12987;BME280;58897;51.960;5.582;2023-11-21T04:30:53;101020.78;;;8.20;100.00
12987;BME280;58897;51.960;5.582;2023-11-21T04:33:19;101023.34;;;8.12;100.00
12987;BME280;58897;51.960;5.582;2023-11-21T04:35:46;101026.63;;;8.15;100.00
12987;BME280;58897;51.960;5.582;2023-11-21T04:38:12;101036.25;;;8.18;100.00
12987;BME280;58897;51.960;5.582;2023-11-21T04:40:39;101035.53;;;8.16;100.00
12987;BME280;58897;51.960;5.582;2023-11-21T04:43:06;101042.47;;;8.08;100.00
12987;BME280;58897;51.960;5.582;2023-11-21T04:45:32;101045.44;;;8.15;100.00
12987;BME280;58897;51.960;5.582;2023-11-21T04:47:59;101043.75;;;8.14;100.00
12987;BME280;58897;51.960;5.582;2023-11-21T04:50:25;101047.72;;;8.10;100.00
12987;BME280;58897;51.960;5.582;2023-11-21T04:52:53;101050.41;;;8.20;100.00
12987;BME280;58897;51.960;5.582;2023-11-21T04:55:20;101059.31;;;8.20;100.00
12987;BME280;58897;51.960;5.582;2023-11-21T04:57:47;101058.91;;;8.15;100.00
12987;BME280;58897;51.960;5.582;2023-11-21T05:00:14;101061.44;;;8.17;100.00
12987;BME280;58897;51.960;5.582;2023-11-21T05:02:42;101060.19;;;8.21;100.00
12987;BME280;58897;51.960;5.582;2023-11-21T05:05:11;101064.13;;;8.17;100.00
12987;BME280;58897;51.960;5.582;2023-11-21T05:07:38;101068.25;;;8.21;100.00
12987;BME280;58897;51.960;5.582;2023-11-21T05:10:06;101063.00;;;8.19;100.00
12987;BME280;58897;51.960;5.582;2023-11-21T05:12:35;101065.28;;;8.24;100.00
12987;BME280;58897;51.960;5.582;2023-11-21T05:15:05;101071.34;;;8.16;100.00
12987;BME280;58897;51.960;5.582;2023-11-21T05:17:39;101073.94;;;8.27;100.00
12987;BME280;58897;51.960;5.582;2023-11-21T05:20:11;101073.19;;;8.25;100.00
12987;BME280;58897;51.960;5.582;2023-11-21T05:22:39;101082.81;;;8.08;100.00
12987;BME280;58897;51.960;5.582;2023-11-21T05:25:07;101084.53;;;8.09;100.00
12987;BME280;58897;51.960;5.582;2023-11-21T05:27:35;101077.75;;;8.15;100.00
12987;BME280;58897;51.960;5.582;2023-11-21T05:30:02;101084.25;;;8.13;100.00
12987;BME280;58897;51.960;5.582;2023-11-21T05:32:32;101078.44;;;8.17;100.00
12987;BME280;58897;51.960;5.582;2023-11-21T05:34:59;101082.84;;;8.18;100.00
12987;BME280;58897;51.960;5.582;2023-11-21T05:37:26;101088.06;;;8.20;100.00
12987;BME280;58897;51.960;5.582;2023-11-21T05:39:53;101084.81;;;8.16;100.00
12987;BME280;58897;51.960;5.582;2023-11-21T05:42:23;101101.41;;;8.21;100.00
12987;BME280;58897;51.960;5.582;2023-11-21T05:44:50;101098.03;;;8.29;100.00
12987;BME280;58897;51.960;5.582;2023-11-21T05:47:16;101110.03;;;8.25;100.00
12987;BME280;58897;51.960;5.582;2023-11-21T05:49:43;101113.16;;;8.20;100.00
12987;BME280;58897;51.960;5.582;2023-11-21T05:52:11;101114.03;;;8.30;100.00
12987;BME280;58897;51.960;5.582;2023-11-21T05:54:38;101120.78;;;8.25;100.00
12987;BME280;58897;51.960;5.582;2023-11-21T05:57:04;101124.09;;;8.28;100.00
12987;BME280;58897;51.960;5.582;2023-11-21T05:59:31;101125.66;;;8.31;100.00
12987;BME280;58897;51.960;5.582;2023-11-21T06:01:57;101123.81;;;8.31;100.00
12987;BME280;58897;51.960;5.582;2023-11-21T06:04:25;101128.16;;;8.23;100.00
12987;BME280;58897;51.960;5.582;2023-11-21T06:06:52;101128.88;;;8.25;100.00
12987;BME280;58897;51.960;5.582;2023-11-21T06:09:21;101131.31;;;8.28;100.00
12987;BME280;58897;51.960;5.582;2023-11-21T06:11:49;101135.28;;;8.33;100.00
12987;BME280;58897;51.960;5.582;2023-11-21T06:14:15;101140.63;;;8.24;100.00
12987;BME280;58897;51.960;5.582;2023-11-21T06:16:44;101139.63;;;8.25;100.00
12987;BME280;58897;51.960;5.582;2023-11-21T06:19:11;101146.59;;;8.27;100.00
12987;BME280;58897;51.960;5.582;2023-11-21T06:21:38;101148.31;;;8.28;100.00
12987;BME280;58897;51.960;5.582;2023-11-21T06:24:05;101152.28;;;8.34;100.00
12987;BME280;58897;51.960;5.582;2023-11-21T06:26:32;101154.53;;;8.38;100.00
12987;BME280;58897;51.960;5.582;2023-11-21T06:28:59;101152.84;;;8.37;100.00
12987;BME280;58897;51.960;5.582;2023-11-21T06:31:26;101152.56;;;8.40;100.00
12987;BME280;58897;51.960;5.582;2023-11-21T06:33:52;101153.97;;;8.35;100.00
12987;BME280;58897;51.960;5.582;2023-11-21T06:36:19;101158.50;;;8.34;100.00
12987;BME280;58897;51.960;5.582;2023-11-21T06:38:46;101156.66;;;8.35;100.00
12987;BME280;58897;51.960;5.582;2023-11-21T06:41:13;101163.34;;;8.31;100.00
12987;BME280;58897;51.960;5.582;2023-11-21T06:43:41;101164.19;;;8.31;100.00
12987;BME280;58897;51.960;5.582;2023-11-21T06:46:13;101159.06;;;8.38;100.00
12987;BME280;58897;51.960;5.582;2023-11-21T06:48:43;101158.09;;;8.39;100.00
12987;BME280;58897;51.960;5.582;2023-11-21T06:51:09;101163.47;;;8.39;100.00
12987;BME280;58897;51.960;5.582;2023-11-21T06:53:37;101173.66;;;8.35;100.00
12987;BME280;58897;51.960;5.582;2023-11-21T06:56:14;101175.78;;;8.32;100.00
12987;BME280;58897;51.960;5.582;2023-11-21T06:58:41;101179.19;;;8.43;100.00
12987;BME280;58897;51.960;5.582;2023-11-21T07:01:08;101189.00;;;8.44;100.00
12987;BME280;58897;51.960;5.582;2023-11-21T07:03:35;101186.41;;;8.43;100.00
12987;BME280;58897;51.960;5.582;2023-11-21T07:06:04;101192.09;;;8.49;100.00
12987;BME280;58897;51.960;5.582;2023-11-21T07:08:31;101193.94;;;8.49;100.00
12987;BME280;58897;51.960;5.582;2023-11-21T07:10:57;101192.66;;;8.43;100.00
12987;BME280;58897;51.960;5.582;2023-11-21T07:13:24;101196.75;;;8.47;100.00
12987;BME280;58897;51.960;5.582;2023-11-21T07:15:51;101215.59;;;8.47;100.00
12987;BME280;58897;51.960;5.582;2023-11-21T07:18:18;101207.97;;;8.43;100.00
12987;BME280;58897;51.960;5.582;2023-11-21T07:20:45;101217.03;;;8.51;100.00
12987;BME280;58897;51.960;5.582;2023-11-21T07:23:12;101227.66;;;8.53;100.00
12987;BME280;58897;51.960;5.582;2023-11-21T07:25:38;101227.53;;;8.54;100.00
12987;BME280;58897;51.960;5.582;2023-11-21T07:28:06;101233.06;;;8.62;100.00
12987;BME280;58897;51.960;5.582;2023-11-21T07:30:33;101232.34;;;8.60;100.00
12987;BME280;58897;51.960;5.582;2023-11-21T07:33:00;101231.09;;;8.64;100.00
12987;BME280;58897;51.960;5.582;2023-11-21T07:35:27;101234.47;;;8.66;100.00
12987;BME280;58897;51.960;5.582;2023-11-21T07:37:53;101238.84;;;8.58;100.00
12987;BME280;58897;51.960;5.582;2023-11-21T07:40:20;101238.88;;;8.67;100.00
12987;BME280;58897;51.960;5.582;2023-11-21T07:42:46;101246.69;;;8.71;100.00
12987;BME280;58897;51.960;5.582;2023-11-21T07:45:13;101249.38;;;8.71;100.00
12987;BME280;58897;51.960;5.582;2023-11-21T07:47:42;101257.03;;;8.75;100.00
12987;BME280;58897;51.960;5.582;2023-11-21T07:50:09;101253.75;;;8.72;100.00
12987;BME280;58897;51.960;5.582;2023-11-21T07:52:38;101253.78;;;8.81;100.00
12987;BME280;58897;51.960;5.582;2023-11-21T07:55:05;101255.72;;;8.79;100.00
12987;BME280;58897;51.960;5.582;2023-11-21T07:57:32;101265.38;;;8.82;100.00
12987;BME280;58897;51.960;5.582;2023-11-21T07:59:59;101265.94;;;8.85;100.00
12987;BME280;58897;51.960;5.582;2023-11-21T08:02:26;101262.41;;;8.85;100.00
12987;BME280;58897;51.960;5.582;2023-11-21T08:04:53;101271.34;;;8.85;100.00
12987;BME280;58897;51.960;5.582;2023-11-21T08:07:23;101285.94;;;8.83;100.00
12987;BME280;58897;51.960;5.582;2023-11-21T08:09:50;101278.72;;;8.83;100.00
12987;BME280;58897;51.960;5.582;2023-11-21T08:12:16;101293.16;;;8.92;100.00
12987;BME280;58897;51.960;5.582;2023-11-21T08:14:46;101294.88;;;8.93;100.00
12987;BME280;58897;51.960;5.582;2023-11-21T08:17:13;101300.13;;;8.94;100.00
12987;BME280;58897;51.960;5.582;2023-11-21T08:19:42;101295.19;;;8.99;100.00
12987;BME280;58897;51.960;5.582;2023-11-21T08:22:09;101301.13;;;9.03;100.00
12987;BME280;58897;51.960;5.582;2023-11-21T08:24:36;101298.44;;;9.12;100.00
12987;BME280;58897;51.960;5.582;2023-11-21T08:27:03;101299.84;;;9.16;100.00
12987;BME280;58897;51.960;5.582;2023-11-21T08:29:31;101297.84;;;9.18;100.00
12987;BME280;58897;51.960;5.582;2023-11-21T08:31:57;101296.41;;;9.24;100.00
12987;BME280;58897;51.960;5.582;2023-11-21T08:34:25;101301.53;;;9.27;100.00
12987;BME280;58897;51.960;5.582;2023-11-21T08:36:52;101305.34;;;9.34;100.00
12987;BME280;58897;51.960;5.582;2023-11-21T08:39:18;101314.72;;;9.40;100.00
12987;BME280;58897;51.960;5.582;2023-11-21T08:41:48;101320.97;;;9.40;100.00
12987;BME280;58897;51.960;5.582;2023-11-21T08:44:18;101323.91;;;9.47;100.00
12987;BME280;58897;51.960;5.582;2023-11-21T08:46:44;101333.00;;;9.46;100.00
12987;BME280;58897;51.960;5.582;2023-11-21T08:49:17;101337.41;;;9.47;100.00
12987;BME280;58897;51.960;5.582;2023-11-21T08:51:44;101339.25;;;9.46;100.00
12987;BME280;58897;51.960;5.582;2023-11-21T08:54:11;101345.66;;;9.45;100.00
12987;BME280;58897;51.960;5.582;2023-11-21T08:56:38;101348.34;;;9.45;100.00
12987;BME280;58897;51.960;5.582;2023-11-21T08:59:04;101352.59;;;9.48;100.00
12987;BME280;58897;51.960;5.582;2023-11-21T09:01:31;101352.88;;;9.45;100.00
12987;BME280;58897;51.960;5.582;2023-11-21T09:03:59;101361.81;;;9.45;100.00
12987;BME280;58897;51.960;5.582;2023-11-21T09:06:26;101373.88;;;9.51;100.00
12987;BME280;58897;51.960;5.582;2023-11-21T09:08:52;101373.03;;;9.50;100.00
12987;BME280;58897;51.960;5.582;2023-11-21T09:11:19;101369.19;;;9.53;100.00
12987;BME280;58897;51.960;5.582;2023-11-21T09:13:46;101375.44;;;9.53;100.00
12987;BME280;58897;51.960;5.582;2023-11-21T09:16:14;101378.56;;;9.58;100.00
12987;BME280;58897;51.960;5.582;2023-11-21T09:18:42;101375.41;;;9.63;100.00
12987;BME280;58897;51.960;5.582;2023-11-21T09:21:08;101381.09;;;9.60;100.00
12987;BME280;58897;51.960;5.582;2023-11-21T09:23:35;101393.03;;;9.57;100.00
12987;BME280;58897;51.960;5.582;2023-11-21T09:26:04;101395.00;;;9.65;100.00
12987;BME280;58897;51.960;5.582;2023-11-21T09:28:32;101409.03;;;9.87;100.00
12987;BME280;58897;51.960;5.582;2023-11-21T09:30:58;101403.66;;;9.87;100.00
12987;BME280;58897;51.960;5.582;2023-11-21T09:33:28;101413.63;;;9.77;100.00
12987;BME280;58897;51.960;5.582;2023-11-21T09:35:57;101409.78;;;9.80;100.00
12987;BME280;58897;51.960;5.582;2023-11-21T09:38:23;101414.16;;;9.81;100.00
12987;BME280;58897;51.960;5.582;2023-11-21T09:40:50;101413.00;;;9.83;100.00
12987;BME280;58897;51.960;5.582;2023-11-21T09:43:19;101417.56;;;9.92;100.00
12987;BME280;58897;51.960;5.582;2023-11-21T09:45:48;101409.88;;;9.98;100.00
12987;BME280;58897;51.960;5.582;2023-11-21T09:48:19;101419.13;;;9.95;100.00
12987;BME280;58897;51.960;5.582;2023-11-21T09:50:47;101425.47;;;10.23;100.00
12987;BME280;58897;51.960;5.582;2023-11-21T09:55:47;101433.69;;;10.31;100.00
12987;BME280;58897;51.960;5.582;2023-11-21T09:58:14;101438.81;;;10.24;100.00
12987;BME280;58897;51.960;5.582;2023-11-21T10:00:45;101440.75;;;10.41;100.00
12987;BME280;58897;51.960;5.582;2023-11-21T10:03:12;101442.75;;;10.39;100.00
12987;BME280;58897;51.960;5.582;2023-11-21T10:05:41;101441.81;;;10.21;100.00
12987;BME280;58897;51.960;5.582;2023-11-21T10:08:10;101448.63;;;10.25;100.00
12987;BME280;58897;51.960;5.582;2023-11-21T10:10:42;101457.56;;;10.26;100.00
12987;BME280;58897;51.960;5.582;2023-11-21T10:13:14;101465.97;;;10.23;100.00
12987;BME280;58897;51.960;5.582;2023-11-21T10:15:49;101462.16;;;10.16;100.00
12987;BME280;58897;51.960;5.582;2023-11-21T10:18:16;101473.34;;;10.21;100.00
12987;BME280;58897;51.960;5.582;2023-11-21T10:20:44;101481.91;;;10.16;100.00
12987;BME280;58897;51.960;5.582;2023-11-21T10:23:19;101483.88;;;10.14;100.00
12987;BME280;58897;51.960;5.582;2023-11-21T10:25:48;101481.91;;;10.16;100.00
12987;BME280;58897;51.960;5.582;2023-11-21T10:28:16;101488.56;;;10.12;100.00
12987;BME280;58897;51.960;5.582;2023-11-21T10:30:42;101483.16;;;10.12;100.00
12987;BME280;58897;51.960;5.582;2023-11-21T10:33:10;101494.09;;;10.01;100.00
12987;BME280;58897;51.960;5.582;2023-11-21T10:35:42;101502.19;;;10.01;100.00
12987;BME280;58897;51.960;5.582;2023-11-21T10:38:09;101502.91;;;10.03;100.00
12987;BME280;58897;51.960;5.582;2023-11-21T10:40:44;101502.31;;;10.09;100.00
12987;BME280;58897;51.960;5.582;2023-11-21T10:43:11;101497.25;;;10.06;100.00
12987;BME280;58897;51.960;5.582;2023-11-21T10:45:40;101500.47;;;10.10;100.00
12987;BME280;58897;51.960;5.582;2023-11-21T10:48:07;101492.25;;;10.11;100.00
12987;BME280;58897;51.960;5.582;2023-11-21T10:50:35;101501.91;;;10.04;100.00
12987;BME280;58897;51.960;5.582;2023-11-21T10:53:03;101502.63;;;10.06;100.00
12987;BME280;58897;51.960;5.582;2023-11-21T10:55:34;101499.09;;;10.15;100.00
12987;BME280;58897;51.960;5.582;2023-11-21T10:58:02;101508.63;;;10.19;100.00
12987;BME280;58897;51.960;5.582;2023-11-21T11:00:35;101521.97;;;10.21;100.00
12987;BME280;58897;51.960;5.582;2023-11-21T11:03:02;101523.09;;;10.09;100.00
12987;BME280;58897;51.960;5.582;2023-11-21T11:05:29;101529.31;;;10.09;100.00
12987;BME280;58897;51.960;5.582;2023-11-21T11:08:05;101544.53;;;10.10;100.00
12987;BME280;58897;51.960;5.582;2023-11-21T11:10:32;101540.84;;;10.11;100.00
12987;BME280;58897;51.960;5.582;2023-11-21T11:13:01;101540.84;;;10.11;100.00
12987;BME280;58897;51.960;5.582;2023-11-21T11:15:31;101536.59;;;10.09;100.00
12987;BME280;58897;51.960;5.582;2023-11-21T11:18:02;101552.22;;;10.05;100.00
12987;BME280;58897;51.960;5.582;2023-11-21T11:20:36;101552.75;;;9.99;100.00
12987;BME280;58897;51.960;5.582;2023-11-21T11:26:24;101548.38;;;9.98;100.00
12987;BME280;58897;51.960;5.582;2023-11-21T11:34:30;101553.75;;;9.88;100.00
12987;BME280;58897;51.960;5.582;2023-11-21T11:37:08;101558.88;;;10.01;100.00
12987;BME280;58897;51.960;5.582;2023-11-21T11:39:38;101559.44;;;10.05;100.00
12987;BME280;58897;51.960;5.582;2023-11-21T11:42:17;101559.00;;;10.09;100.00
12987;BME280;58897;51.960;5.582;2023-11-21T11:44:47;101561.59;;;10.20;100.00
12987;BME280;58897;51.960;5.582;2023-11-21T11:47:28;101557.31;;;10.27;100.00
12987;BME280;58897;51.960;5.582;2023-11-21T11:53:15;101571.41;;;10.31;100.00
12987;BME280;58897;51.960;5.582;2023-11-21T11:56:18;101582.47;;;10.28;100.00
12987;BME280;58897;51.960;5.582;2023-11-21T11:58:47;101581.94;;;10.24;100.00
12987;BME280;58897;51.960;5.582;2023-11-21T12:01:18;101595.44;;;10.24;100.00
12987;BME280;58897;51.960;5.582;2023-11-21T12:06:42;101596.69;;;10.20;100.00
12987;BME280;58897;51.960;5.582;2023-11-21T12:09:19;101592.88;;;10.23;100.00
12987;BME280;58897;51.960;5.582;2023-11-21T12:11:51;101592.31;;;10.19;100.00
12987;BME280;58897;51.960;5.582;2023-11-21T12:14:18;101594.00;;;10.20;100.00
12987;BME280;58897;51.960;5.582;2023-11-21T12:16:44;101598.97;;;10.15;100.00
12987;BME280;58897;51.960;5.582;2023-11-21T12:19:12;101599.53;;;10.28;100.00
12987;BME280;58897;51.960;5.582;2023-11-21T12:21:42;101610.19;;;10.30;100.00
12987;BME280;58897;51.960;5.582;2023-11-21T12:24:11;101608.63;;;10.27;100.00
12987;BME280;58897;51.960;5.582;2023-11-21T12:26:42;101618.44;;;10.28;100.00
12987;BME280;58897;51.960;5.582;2023-11-21T12:29:14;101617.44;;;10.20;100.00
12987;BME280;58897;51.960;5.582;2023-11-21T12:31:43;101623.00;;;10.18;100.00
12987;BME280;58897;51.960;5.582;2023-11-21T12:34:10;101629.81;;;10.22;100.00
12987;BME280;58897;51.960;5.582;2023-11-21T12:36:37;101619.16;;;10.30;100.00
12987;BME280;58897;51.960;5.582;2023-11-21T12:39:04;101622.28;;;10.26;100.00
12987;BME280;58897;51.960;5.582;2023-11-21T12:41:31;101630.25;;;10.18;100.00
12987;BME280;58897;51.960;5.582;2023-11-21T12:43:58;101632.38;;;10.24;100.00
12987;BME280;58897;51.960;5.582;2023-11-21T12:46:25;101624.44;;;10.32;100.00
12987;BME280;58897;51.960;5.582;2023-11-21T12:48:58;101629.38;;;10.17;100.00
12987;BME280;58897;51.960;5.582;2023-11-21T12:51:25;101625.25;;;10.23;100.00
12987;BME280;58897;51.960;5.582;2023-11-21T12:53:54;101628.69;;;10.15;100.00
12987;BME280;58897;51.960;5.582;2023-11-21T12:56:21;101628.38;;;10.09;100.00
12987;BME280;58897;51.960;5.582;2023-11-21T12:58:50;101631.91;;;10.09;100.00
12987;BME280;58897;51.960;5.582;2023-11-21T13:01:20;101634.34;;;10.12;100.00
12987;BME280;58897;51.960;5.582;2023-11-21T13:03:51;101631.53;;;10.14;100.00
12987;BME280;58897;51.960;5.582;2023-11-21T13:06:20;101633.34;;;10.04;100.00
12987;BME280;58897;51.960;5.582;2023-11-21T13:08:51;101640.97;;;9.99;100.00